• Join FlightAware (Why Join?)
  • Login
  • US Flag 
12:54PM EDT


 

Airport Tracker/Info


-or-


 

Live Flight TrackerFlight Track Log ✈ N102WY ✈ 11-Sep-2013 ✈ KCYS - KGCC

Flight Track Log - Related Links

Times and Time Zones

All times are in EDT time to prevent confusion due to time zone crossing. See the N102WY flight status page for this flight to view local times or setup timezone preferences in your user account.

Time Position Orientation Groundspeed Altitude Reporting Facility
EDT Latitude Longitude Course Direction KTS MPH feet Rate Location/Type
03:10PM 41.1625 -104.8544 343° North 252 290 7,900  Level Denver Center
03:11PM 41.2369 -104.8856 343° North 258 297 11,100 2,880 Climbing Denver Center
03:12PM 41.3139 -104.9036 350° North 284 327 13,900 3,180 Climbing Denver Center
03:13PM 41.4022 -104.9194 352° North 286 329 17,700 2,280 Climbing Denver Center
03:14PM 41.4756 -104.9339 352° North 280 322 18,700 540 Climbing Denver Center
03:16PM 41.5789 -104.9533 352° North 327 376 19,000 120 Climbing Denver Center
03:17PM 41.6967 -104.9803 350° North 373 429 19,000 480 Level Denver Center
03:18PM 41.8128 -105.0028 352° North 378 435 20,100 1,920 Climbing Denver Center
03:19PM 41.9000 -105.0203 352° North 341 392 23,000 2,520 Climbing Denver Center
03:20PM 41.9875 -105.0392 351° North 292 336 25,400 1,560 Climbing Denver Center
03:21PM 42.0708 -105.0553 352° North 315 362 26,300 1,980 Climbing Denver Center
03:22PM 42.1744 -105.0767 351° North 335 386 29,600 2,460 Climbing Denver Center
03:23PM 42.2539 -105.0928 351° North 307 353 31,400 1,560 Climbing Denver Center
03:24PM 42.3406 -105.1094 352° North 324 373 32,900 1,500 Climbing Denver Center
03:25PM 42.4494 -105.1339 351° North 351 404 34,500 1,440 Climbing Denver Center
03:26PM 42.5483 -105.1542 351° North 368 423 35,900 1,620 Climbing Denver Center
03:27PM 42.6578 -105.1775 351° North 358 412 37,900 960 Climbing Denver Center
03:28PM 42.7572 -105.1992 351° North 373 429 38,000  Climbing Denver Center
03:29PM 42.8742 -105.2225 352° North 378 435 38,000  Level Denver Center
03:30PM 42.9750 -105.2422 352° North 381 438 38,000  Level Denver Center
03:31PM 43.0736 -105.2636 351° North 375 432 38,000  Level Denver Center
03:32PM 43.1872 -105.2869 351° North 370 426 38,000 -540 Level Denver Center
03:33PM 43.2850 -105.3072 351° North 370 426 37,000 -2,100 Descending Denver Center
03:34PM 43.4028 -105.3317 351° North 380 437 33,700 -3,000 Descending Denver Center
03:35PM 43.5064 -105.3536 351° North 389 448 30,900 -3,180 Descending Denver Center
03:36PM 43.6250 -105.3794 351° North 388 447 27,200 -3,540 Descending Denver Center
03:37PM 43.7242 -105.3986 352° North 379 436 23,600 -3,960 Descending Denver Center
03:38PM 43.8353 -105.4244 350° North 368 423 19,100 -3,840 Descending Denver Center
03:39PM 43.9256 -105.4447 351° North 352 405 15,700 -3,480 Descending Denver Center
03:40PM 44.0256 -105.4658 351° North 335 386 12,000 -3,060 Descending Denver Center
03:41PM 44.1025 -105.4806 352° North 308 354 9,500 -2,460 Descending Denver Center
03:43PM 44.2007 -105.5001 352° North  Level FlightAware Approximate
03:50PM 44.3333 -105.5333 324° Northwest  Level FlightAware Approximate
03:51PM 44.3489 -105.5394 324° Northwest  Level Estimated
03:52PM 44.3489 -105.5394 324° Northwest  Level Estimated